LCRA/AKT METAR and TAF weather

Enter ICAO airport designator
Station Type Date Time Source
LCRA METAR 2018/12/11 21:50 UTC NOAA

LCRA 112150Z 24012KT 9999 SCT045 17/13 Q1013 BLU TEMPO 5000 +SHRA SCT024CB WHT


Station Type Date Time Source
LCRA Decoded METAR 2018/12/11 21:50 UTC NOAA

Akrotiri, Cyprus (LCRA) 34-35N 032-59E 0M
Dec 11, 2018 - 04:50 PM EST / 2018.12.11 2150 UTC
Wind: from the WSW (240 degrees) at 14 MPH (12 KT):0
Visibility: greater than 7 mile(s):0
Sky conditions: partly cloudy
Weather: Cumulonimbus clouds observed
Temperature: 62 F (17 C)
Dew Point: 55 F (13 C)
Relative Humidity: 77%
Pressure (altimeter): 29.91 in. Hg (1013 hPa)
ob: LCRA 112150Z 24012KT 9999 SCT045 17/13 Q1013 BLU TEMPO 5000 +SHRA SCT024CB WHT
cycle: 22

Station Type Date Time Source
LCRA TAF 2018/12/11 21:33 UTC NOAA

TAF TAF LCRA 111922Z 1121/1215 27022G32KT 9999 SCT040 PROB30
TEMPO 1121/1201 3000 TSRA SCT022CB PROB30
TEMPO 1201/1212 5000 SHRA SCT024TCU
BECMG 1206/1209 27028G42KT


Example: see airport list